createdAt,value
2018-12-07T00:01:29.209Z,27.53
2018-12-07T00:03:57.690Z,27.10
2018-12-07T00:06:25.861Z,30.20
2018-12-07T00:08:54.242Z,35.57
2018-12-07T00:11:22.511Z,28.13
2018-12-07T00:13:50.684Z,30.03
2018-12-07T00:16:18.957Z,31.17
2018-12-07T00:18:47.240Z,23.00
2018-12-07T00:21:15.440Z,23.40
2018-12-07T00:23:43.664Z,29.40
2018-12-07T00:26:11.915Z,24.63
2018-12-07T00:28:40.088Z,26.53
2018-12-07T00:31:08.317Z,33.27
2018-12-07T00:33:36.487Z,27.37
2018-12-07T00:36:04.764Z,27.67
2018-12-07T00:38:32.919Z,41.50
2018-12-07T00:41:01.185Z,27.43
2018-12-07T00:43:29.351Z,25.63
2018-12-07T00:45:57.530Z,30.90
2018-12-07T00:48:25.720Z,39.33
2018-12-07T00:50:53.897Z,34.33
2018-12-07T00:53:22.185Z,30.53
2018-12-07T00:55:50.453Z,27.10
2018-12-07T00:58:18.661Z,34.93
2018-12-07T01:00:47.502Z,28.70
2018-12-07T01:03:15.915Z,27.80
2018-12-07T01:05:44.278Z,26.17
2018-12-07T01:08:12.524Z,21.90
2018-12-07T01:10:40.728Z,23.10
2018-12-07T01:13:08.918Z,25.70
2018-12-07T01:15:37.296Z,22.63
2018-12-07T01:18:05.483Z,24.87
2018-12-07T01:20:33.820Z,23.83
2018-12-07T01:23:02.002Z,20.00
2018-12-07T01:25:30.272Z,19.20
2018-12-07T01:27:58.549Z,24.90
2018-12-07T01:30:26.884Z,19.73
2018-12-07T01:32:55.120Z,17.20
2018-12-07T01:35:23.399Z,20.10
2018-12-07T01:37:51.649Z,22.83
2018-12-07T01:40:19.934Z,16.30
2018-12-07T01:42:48.307Z,19.00
2018-12-07T01:45:16.553Z,18.77
2018-12-07T01:47:45.619Z,16.33
2018-12-07T01:50:15.348Z,16.83
2018-12-07T01:52:43.649Z,16.27
2018-12-07T01:55:11.923Z,14.10
2018-12-07T01:57:40.214Z,15.50
2018-12-07T02:00:09.297Z,16.13
2018-12-07T02:02:37.556Z,14.47
2018-12-07T02:05:06.234Z,16.53
2018-12-07T02:07:35.610Z,14.47
2018-12-07T02:10:05.028Z,14.50
2018-12-07T02:12:33.345Z,14.50
2018-12-07T02:15:01.623Z,15.60
2018-12-07T02:17:29.800Z,13.77
2018-12-07T02:19:58.056Z,12.83
2018-12-07T02:22:26.436Z,13.70
2018-12-07T02:24:54.590Z,19.23
2018-12-07T02:27:22.800Z,12.70
2018-12-07T02:29:51.062Z,13.20
2018-12-07T02:32:19.353Z,14.47
2018-12-07T02:34:47.598Z,12.27
2018-12-07T02:37:15.765Z,12.53
2018-12-07T02:39:43.996Z,12.13
2018-12-07T02:42:12.244Z,13.03
2018-12-07T02:44:40.513Z,11.90
2018-12-07T02:47:09.449Z,13.93
2018-12-07T02:49:37.678Z,9.57
2018-12-07T02:52:05.930Z,10.53
2018-12-07T02:54:34.326Z,11.90
2018-12-07T02:57:02.610Z,10.33
2018-12-07T02:59:30.822Z,12.93
2018-12-07T03:01:58.979Z,11.83
2018-12-07T03:04:27.325Z,12.40
2018-12-07T03:06:55.540Z,11.03
2018-12-07T03:09:23.773Z,10.00
2018-12-07T03:11:51.980Z,10.93
2018-12-07T03:14:20.224Z,11.27
2018-12-07T03:16:48.444Z,10.90
2018-12-07T03:19:16.651Z,8.50
2018-12-07T03:21:45.764Z,10.27
2018-12-07T03:24:14.301Z,11.13
2018-12-07T03:26:42.471Z,11.00
2018-12-07T03:29:11.308Z,11.80
2018-12-07T03:31:39.468Z,10.23
2018-12-07T03:34:07.666Z,13.07
2018-12-07T03:36:36.059Z,13.53
2018-12-07T03:39:05.848Z,10.77
2018-12-07T03:41:34.101Z,11.60
2018-12-07T03:44:02.501Z,11.70
2018-12-07T03:46:30.768Z,11.20
2018-12-07T03:48:58.949Z,10.93
2018-12-07T03:51:27.217Z,13.77
2018-12-07T03:53:55.376Z,14.50
2018-12-07T03:56:23.558Z,11.17
2018-12-07T03:58:52.083Z,13.97
2018-12-07T04:01:20.329Z,15.07
2018-12-07T04:03:48.512Z,14.20
2018-12-07T04:06:16.738Z,10.97
2018-12-07T04:08:45.239Z,12.30
2018-12-07T04:11:13.433Z,15.77
2018-12-07T04:13:41.623Z,10.40
2018-12-07T04:16:09.868Z,11.87
2018-12-07T04:18:38.104Z,11.27
2018-12-07T04:21:06.444Z,12.30
2018-12-07T04:23:34.626Z,13.33
2018-12-07T04:26:03.188Z,15.53
2018-12-07T04:28:31.458Z,11.90
2018-12-07T04:30:59.683Z,11.50
2018-12-07T04:33:27.935Z,12.43
2018-12-07T04:35:56.293Z,10.77
2018-12-07T04:38:24.449Z,13.03
2018-12-07T04:40:52.664Z,10.60
2018-12-07T04:43:20.875Z,13.77
2018-12-07T04:45:49.182Z,14.73
2018-12-07T04:48:17.361Z,13.00
2018-12-07T04:50:45.615Z,13.20
2018-12-07T04:53:13.823Z,13.67
2018-12-07T04:55:42.094Z,12.37
2018-12-07T04:58:10.463Z,10.57
2018-12-07T05:00:38.729Z,15.43
2018-12-07T05:03:06.973Z,12.00
2018-12-07T05:05:35.288Z,14.40
2018-12-07T05:08:03.566Z,13.10
2018-12-07T05:10:31.757Z,11.47
2018-12-07T05:13:00.120Z,11.07
2018-12-07T05:15:28.395Z,12.17
2018-12-07T05:17:56.574Z,11.23
2018-12-07T05:20:24.768Z,13.80
2018-12-07T05:22:52.938Z,10.90
2018-12-07T05:25:21.185Z,12.23
2018-12-07T05:27:49.658Z,14.10
2018-12-07T05:30:17.889Z,12.27
2018-12-07T05:32:46.065Z,12.00
2018-12-07T05:35:14.285Z,12.70
2018-12-07T05:37:42.548Z,11.10
2018-12-07T05:40:10.736Z,10.77
2018-12-07T05:42:39.010Z,12.33
2018-12-07T05:45:07.436Z,14.70
2018-12-07T05:47:35.602Z,14.90
2018-12-07T05:50:05.650Z,14.83
2018-12-07T05:52:33.867Z,15.30
2018-12-07T05:55:02.039Z,12.47
2018-12-07T05:57:30.293Z,11.37
2018-12-07T05:59:58.574Z,12.20
2018-12-07T06:02:26.827Z,11.33
2018-12-07T06:04:55.032Z,14.60
2018-12-07T06:07:23.394Z,10.90
2018-12-07T06:09:51.567Z,13.73
2018-12-07T06:12:19.885Z,10.40
2018-12-07T06:14:48.122Z,12.73
2018-12-07T06:17:16.410Z,12.70
2018-12-07T06:19:44.632Z,11.57
2018-12-07T06:22:12.788Z,13.70
2018-12-07T06:24:41.021Z,12.00
2018-12-07T06:27:09.221Z,11.97
2018-12-07T06:29:37.465Z,12.50
2018-12-07T06:32:05.742Z,11.37
2018-12-07T06:34:33.943Z,11.20
2018-12-07T06:37:02.310Z,10.80
2018-12-07T06:39:30.567Z,13.87
2018-12-07T06:41:58.775Z,10.53
2018-12-07T06:44:27.040Z,13.10
2018-12-07T06:46:55.205Z,13.03
2018-12-07T06:49:23.480Z,11.97
2018-12-07T06:51:51.741Z,13.73
2018-12-07T06:54:20.027Z,12.57
2018-12-07T06:56:48.236Z,12.70
2018-12-07T06:59:16.543Z,12.20
2018-12-07T07:01:44.711Z,13.20
2018-12-07T07:04:13.012Z,13.53
2018-12-07T07:06:41.293Z,12.80
2018-12-07T07:09:10.131Z,12.50
2018-12-07T07:11:38.462Z,15.03
2018-12-07T07:14:06.736Z,16.33
2018-12-07T07:16:34.900Z,14.70
2018-12-07T07:21:28.252Z,14.53
2018-12-07T07:23:56.552Z,14.17
2018-12-07T07:26:24.837Z,18.57
2018-12-07T07:28:53.117Z,14.30
2018-12-07T07:31:22.926Z,13.47
2018-12-07T07:33:51.176Z,9.07
2018-12-07T07:36:19.464Z,9.53
2018-12-07T07:38:47.640Z,18.30
2018-12-07T07:41:15.832Z,12.30
2018-12-07T07:43:45.946Z,11.37
2018-12-07T07:46:14.605Z,11.77
2018-12-07T07:48:42.816Z,11.97
2018-12-07T07:51:11.172Z,10.87
2018-12-07T07:53:39.451Z,13.23
2018-12-07T07:56:15.143Z,9.50
2018-12-07T07:58:38.071Z,12.00
2018-12-07T08:01:06.283Z,13.40
2018-12-07T08:03:34.444Z,9.87
2018-12-07T08:06:02.714Z,9.57
2018-12-07T08:08:30.873Z,10.97
2018-12-07T08:10:59.028Z,10.40
2018-12-07T08:13:27.217Z,11.53
2018-12-07T08:15:55.453Z,14.70
2018-12-07T08:18:23.604Z,9.30
2018-12-07T08:20:52.098Z,9.67
2018-12-07T08:23:20.258Z,9.70
2018-12-07T08:25:48.452Z,10.67
2018-12-07T08:28:16.633Z,9.20
2018-12-07T08:30:44.827Z,8.77
2018-12-07T08:33:13.083Z,10.13
2018-12-07T08:35:41.358Z,10.80
2018-12-07T08:38:09.533Z,12.07
2018-12-07T08:40:37.807Z,9.20
2018-12-07T08:43:06.042Z,10.20
2018-12-07T08:45:34.360Z,9.00
2018-12-07T08:48:02.584Z,12.83
2018-12-07T08:50:30.809Z,13.70
2018-12-07T08:52:59.086Z,10.80
2018-12-07T08:55:27.343Z,11.13
2018-12-07T08:57:56.016Z,9.33
2018-12-07T09:00:24.977Z,13.27
2018-12-07T09:02:53.236Z,13.53
2018-12-07T09:05:21.468Z,9.57
2018-12-07T09:07:49.710Z,11.87
2018-12-07T09:10:18.031Z,11.63
2018-12-07T09:12:46.467Z,11.30
2018-12-07T09:15:14.736Z,9.63
2018-12-07T09:17:43.019Z,10.47
2018-12-07T09:20:11.288Z,11.53
2018-12-07T09:22:39.444Z,10.10
2018-12-07T09:25:07.790Z,9.47
2018-12-07T09:27:36.042Z,10.27
2018-12-07T09:30:05.441Z,10.27
2018-12-07T09:32:33.753Z,11.40
2018-12-07T09:35:02.026Z,8.87
2018-12-07T09:37:30.288Z,10.80
2018-12-07T09:39:58.559Z,9.57
2018-12-07T09:42:26.845Z,10.00
2018-12-07T09:44:55.020Z,9.67
2018-12-07T09:47:23.180Z,10.10
2018-12-07T09:49:51.482Z,10.00
2018-12-07T09:52:19.799Z,10.87
2018-12-07T09:54:48.034Z,10.30
2018-12-07T09:57:16.296Z,9.63
2018-12-07T09:59:44.474Z,9.73
2018-12-07T10:02:12.641Z,10.67
2018-12-07T10:04:40.903Z,11.17
2018-12-07T10:07:09.140Z,12.60
2018-12-07T10:09:37.306Z,15.13
2018-12-07T10:12:05.560Z,15.27
2018-12-07T10:14:33.817Z,17.07
2018-12-07T10:17:02.783Z,13.33
2018-12-07T10:19:31.082Z,15.60
2018-12-07T10:21:59.362Z,12.93
2018-12-07T10:24:27.524Z,13.00
2018-12-07T10:27:01.754Z,14.00
2018-12-07T10:29:29.922Z,14.83
2018-12-07T10:31:58.353Z,14.67
2018-12-07T10:34:26.570Z,12.50
2018-12-07T10:36:54.853Z,13.00
2018-12-07T10:39:23.038Z,14.70
2018-12-07T10:41:51.249Z,11.60
2018-12-07T10:44:19.480Z,11.63
2018-12-07T10:46:47.846Z,12.13
2018-12-07T10:49:16.129Z,13.20
2018-12-07T10:51:44.286Z,14.00
2018-12-07T10:54:12.570Z,15.10
2018-12-07T10:56:40.801Z,18.17
2018-12-07T10:59:08.995Z,17.70
2018-12-07T11:01:43.001Z,17.90
2018-12-07T11:04:16.690Z,13.33
2018-12-07T11:06:48.397Z,12.67
2018-12-07T11:09:22.198Z,16.20
2018-12-07T11:11:52.379Z,15.40
2018-12-07T11:14:22.574Z,12.57
2018-12-07T11:20:02.341Z,11.53
2018-12-07T11:22:36.329Z,14.57
2018-12-07T11:25:11.142Z,14.77
2018-12-07T11:27:44.828Z,15.20
2018-12-07T11:30:18.816Z,13.10
2018-12-07T11:32:52.624Z,13.20
2018-12-07T11:35:22.738Z,15.60
2018-12-07T11:37:51.763Z,12.27
2018-12-07T11:40:19.941Z,14.00
2018-12-07T11:42:48.428Z,12.80
2018-12-07T11:45:16.697Z,13.23
2018-12-07T11:47:44.981Z,16.73
2018-12-07T11:50:15.297Z,13.50
2018-12-07T11:52:43.541Z,12.73
2018-12-07T11:55:11.740Z,14.43
2018-12-07T11:57:40.029Z,14.00
2018-12-07T12:00:08.440Z,18.63
2018-12-07T12:02:36.667Z,20.03
2018-12-07T12:05:05.477Z,16.63
2018-12-07T12:07:33.641Z,10.37
2018-12-07T12:10:01.927Z,13.07
2018-12-07T12:12:30.200Z,13.07
2018-12-07T12:14:58.467Z,15.37
2018-12-07T12:17:26.629Z,12.40
2018-12-07T12:19:54.920Z,12.07
2018-12-07T12:22:23.196Z,16.43
2018-12-07T12:24:51.374Z,16.87
2018-12-07T12:27:19.641Z,18.17
2018-12-07T12:29:47.815Z,15.83
2018-12-07T12:32:16.089Z,15.33
2018-12-07T12:34:44.289Z,17.00
2018-12-07T12:37:12.550Z,15.37
2018-12-07T12:39:40.814Z,19.00
2018-12-07T12:42:09.093Z,18.70
2018-12-07T12:44:37.265Z,15.27
2018-12-07T12:47:05.545Z,14.07
2018-12-07T12:49:33.851Z,15.80
2018-12-07T12:52:02.073Z,22.90
2018-12-07T12:54:30.372Z,28.43
2018-12-07T12:56:58.646Z,22.30
2018-12-07T12:59:26.928Z,20.93
2018-12-07T13:01:55.221Z,19.20
2018-12-07T13:04:23.473Z,20.97
2018-12-07T13:06:51.758Z,20.43
2018-12-07T13:09:20.238Z,21.10
2018-12-07T13:11:48.481Z,17.30
2018-12-07T13:14:16.684Z,19.23
2018-12-07T13:16:44.843Z,16.37
2018-12-07T13:19:13.122Z,17.50
2018-12-07T13:21:41.342Z,20.03
2018-12-07T13:24:09.570Z,20.30
2018-12-07T13:26:37.746Z,17.40
2018-12-07T13:29:05.992Z,19.87
2018-12-07T13:31:34.209Z,23.33
2018-12-07T13:34:02.426Z,21.30
2018-12-07T13:36:30.596Z,20.80
2018-12-07T13:38:58.866Z,16.90
2018-12-07T13:41:27.599Z,20.03
2018-12-07T13:43:56.234Z,21.60
2018-12-07T13:46:24.654Z,20.97
2018-12-07T13:48:53.097Z,17.00
2018-12-07T13:51:22.001Z,21.97
2018-12-07T13:53:50.621Z,23.53
2018-12-07T13:56:18.902Z,22.50
2018-12-07T13:58:47.449Z,21.93
2018-12-07T14:01:15.889Z,17.67
2018-12-07T14:03:44.356Z,21.00
2018-12-07T14:06:12.887Z,16.20
2018-12-07T14:08:41.336Z,17.97
2018-12-07T14:11:09.644Z,20.90
2018-12-07T14:13:38.013Z,21.87
2018-12-07T14:16:06.343Z,18.03
2018-12-07T14:18:34.528Z,21.27
2018-12-07T14:21:02.708Z,19.00
2018-12-07T14:23:30.964Z,19.80
2018-12-07T14:25:59.461Z,18.77
2018-12-07T14:28:27.952Z,18.97
2018-12-07T14:30:56.453Z,17.50
2018-12-07T14:33:24.917Z,21.47
2018-12-07T14:35:53.366Z,19.30
2018-12-07T14:38:21.719Z,17.67
2018-12-07T14:40:49.997Z,20.07
2018-12-07T14:43:18.392Z,20.50
2018-12-07T14:45:47.023Z,23.83
2018-12-07T14:48:15.562Z,25.50
2018-12-07T14:50:43.750Z,28.67
2018-12-07T14:53:12.052Z,27.87
2018-12-07T14:55:40.519Z,28.20
2018-12-07T14:58:08.887Z,26.57
2018-12-07T15:00:37.449Z,24.63
2018-12-07T15:03:05.746Z,29.70
2018-12-07T15:05:34.135Z,23.47
2018-12-07T15:08:02.567Z,25.10
2018-12-07T15:10:31.342Z,22.73
2018-12-07T15:12:59.642Z,21.87
2018-12-07T15:15:27.956Z,22.23
2018-12-07T15:17:56.545Z,20.20
2018-12-07T15:20:24.928Z,18.77
2018-12-07T15:22:53.363Z,17.27
2018-12-07T15:25:22.162Z,19.40
2018-12-07T15:27:50.378Z,16.90
2018-12-07T15:30:18.955Z,16.17
2018-12-07T15:32:47.303Z,16.83
2018-12-07T15:35:15.697Z,17.33
2018-12-07T15:37:44.130Z,15.17
2018-12-07T15:40:12.695Z,16.07
2018-12-07T15:42:41.133Z,13.50
2018-12-07T15:45:09.779Z,16.13
2018-12-07T15:47:38.239Z,15.50
2018-12-07T15:50:07.200Z,14.03
2018-12-07T15:52:35.940Z,15.30
2018-12-07T15:55:04.492Z,16.40
2018-12-07T15:57:32.757Z,14.40
2018-12-07T16:00:01.149Z,22.67
2018-12-07T16:02:29.592Z,18.10
2018-12-07T16:04:58.291Z,15.40
2018-12-07T16:07:26.868Z,15.50
2018-12-07T16:09:55.382Z,16.47
2018-12-07T16:12:23.861Z,19.03
2018-12-07T16:14:52.443Z,16.10
2018-12-07T16:17:20.856Z,17.63
2018-12-07T16:19:49.412Z,19.40
2018-12-07T16:22:20.013Z,23.20
2018-12-07T16:24:49.501Z,26.90
2018-12-07T16:27:18.309Z,27.37
2018-12-07T16:29:46.636Z,29.43
2018-12-07T16:32:14.896Z,36.10
2018-12-07T16:34:43.954Z,36.33
2018-12-07T16:37:13.238Z,36.20
2018-12-07T16:39:41.819Z,31.93
2018-12-07T16:42:10.498Z,33.53
2018-12-07T16:44:39.248Z,31.87
2018-12-07T16:47:07.695Z,26.73
2018-12-07T16:49:36.038Z,32.77
2018-12-07T16:52:04.435Z,29.83
2018-12-07T16:54:32.963Z,25.17
2018-12-07T16:57:01.584Z,27.20
2018-12-07T16:59:30.288Z,34.53
2018-12-07T17:01:58.616Z,29.33
2018-12-07T17:04:27.190Z,26.23
2018-12-07T17:06:55.642Z,22.93
2018-12-07T17:09:24.493Z,20.67
2018-12-07T17:11:53.081Z,24.20
2018-12-07T17:14:21.725Z,22.97
2018-12-07T17:16:50.037Z,29.87
2018-12-07T17:19:18.296Z,32.17
2018-12-07T17:21:46.753Z,26.77
2018-12-07T17:24:15.178Z,29.93
2018-12-07T17:26:43.446Z,33.20
2018-12-07T17:29:11.709Z,34.00
2018-12-07T17:31:40.147Z,34.67
2018-12-07T17:34:09.493Z,33.87
2018-12-07T17:36:38.456Z,38.40
2018-12-07T17:39:07.839Z,35.20
2018-12-07T17:41:37.263Z,36.20
2018-12-07T17:44:05.655Z,33.17
2018-12-07T17:46:33.942Z,27.70
2018-12-07T17:49:02.232Z,32.40
2018-12-07T17:51:30.701Z,27.57
2018-12-07T17:53:59.169Z,31.20
2018-12-07T17:56:27.493Z,34.00
2018-12-07T17:58:56.134Z,23.80
2018-12-07T18:01:24.358Z,25.47
2018-12-07T18:03:52.536Z,25.97
2018-12-07T18:06:20.908Z,24.93
2018-12-07T18:08:50.177Z,31.10
2018-12-07T18:11:18.748Z,29.10
2018-12-07T18:13:48.211Z,27.47
2018-12-07T18:16:19.158Z,26.50
2018-12-07T18:18:47.885Z,25.10
2018-12-07T18:21:16.708Z,28.83
2018-12-07T18:23:45.308Z,26.87
2018-12-07T18:26:13.686Z,27.50
2018-12-07T18:28:42.482Z,26.83
2018-12-07T18:31:10.944Z,25.27
2018-12-07T18:33:40.194Z,26.07
2018-12-07T18:36:08.521Z,30.13
2018-12-07T18:38:36.893Z,21.90
2018-12-07T18:41:05.284Z,28.00
2018-12-07T18:43:33.954Z,31.87
2018-12-07T18:46:02.464Z,28.47
2018-12-07T18:48:30.781Z,26.50
2018-12-07T18:50:59.198Z,23.57
2018-12-07T18:53:27.756Z,25.80
2018-12-07T18:55:56.177Z,22.97
2018-12-07T18:58:24.655Z,29.50
2018-12-07T19:00:53.018Z,24.87
2018-12-07T19:03:21.563Z,27.83
2018-12-07T19:05:49.953Z,30.80
2018-12-07T19:08:18.201Z,27.77
2018-12-07T19:10:46.486Z,23.13
2018-12-07T19:13:15.757Z,31.00
2018-12-07T19:15:44.754Z,23.50
2018-12-07T19:18:15.428Z,28.20
2018-12-07T19:20:43.911Z,22.17
2018-12-07T19:23:12.262Z,21.40
2018-12-07T19:25:40.733Z,25.73
2018-12-07T19:28:09.257Z,24.60
2018-12-07T19:30:37.857Z,28.17
2018-12-07T19:33:06.522Z,26.70
2018-12-07T19:35:35.042Z,24.70
2018-12-07T19:38:03.643Z,27.70
2018-12-07T19:40:32.139Z,24.67
2018-12-07T19:43:00.395Z,25.30
2018-12-07T19:45:28.807Z,28.27
2018-12-07T19:47:57.132Z,27.07
2018-12-07T19:50:25.602Z,29.27
2018-12-07T19:52:54.213Z,29.57
2018-12-07T19:55:22.499Z,31.63
2018-12-07T19:57:51.103Z,34.53
2018-12-07T20:00:19.753Z,31.43
2018-12-07T20:02:50.404Z,30.87
2018-12-07T20:05:18.582Z,28.40
2018-12-07T20:07:47.146Z,33.27
2018-12-07T20:10:15.566Z,35.80
2018-12-07T20:12:44.030Z,36.03
2018-12-07T20:15:12.503Z,38.43
2018-12-07T20:17:41.562Z,33.93
2018-12-07T20:20:10.292Z,35.10
2018-12-07T20:22:38.850Z,37.57
2018-12-07T20:25:11.456Z,31.83
2018-12-07T20:27:39.973Z,31.97
2018-12-07T20:30:08.401Z,28.43
2018-12-07T20:32:37.098Z,25.93
2018-12-07T20:35:05.872Z,31.13
2018-12-07T20:37:35.157Z,30.87
2018-12-07T20:40:04.208Z,37.90
2018-12-07T20:42:33.306Z,38.47
2018-12-07T20:45:01.658Z,35.93
2018-12-07T20:47:29.943Z,35.10
2018-12-07T20:49:58.698Z,29.00
2018-12-07T20:52:27.482Z,30.00
2018-12-07T20:54:56.127Z,29.20
2018-12-07T20:57:24.882Z,26.43
2018-12-07T20:59:53.591Z,28.83
2018-12-07T21:02:22.030Z,33.27
2018-12-07T21:04:50.592Z,28.70
2018-12-07T21:07:40.421Z,29.57
2018-12-07T21:14:09.002Z,27.60
2018-12-07T21:17:02.590Z,26.63
2018-12-07T21:19:31.526Z,21.90
2018-12-07T21:22:00.913Z,20.53
2018-12-07T21:24:29.683Z,19.33
2018-12-07T21:26:58.221Z,20.70
2018-12-07T21:29:26.725Z,19.40
2018-12-07T21:32:00.461Z,19.03
2018-12-07T21:35:06.322Z,20.43
2018-12-07T21:37:34.706Z,20.73
2018-12-07T21:40:09.939Z,20.20
2018-12-07T21:42:38.579Z,20.23
2018-12-07T21:45:07.215Z,19.87
2018-12-07T21:47:56.258Z,19.13
2018-12-07T21:50:24.787Z,27.03
2018-12-07T21:52:54.447Z,21.37
2018-12-07T21:55:23.001Z,22.27
2018-12-07T21:57:51.531Z,19.03
2018-12-07T22:00:19.837Z,19.93
2018-12-07T22:02:48.859Z,19.17
2018-12-07T22:05:17.378Z,22.70
2018-12-07T22:07:45.824Z,20.37
2018-12-07T22:10:14.137Z,18.27
2018-12-07T22:12:42.509Z,20.10
2018-12-07T22:15:10.762Z,21.03
2018-12-07T22:17:39.347Z,22.33
2018-12-07T22:20:08.383Z,25.90
2018-12-07T22:22:36.610Z,23.50
2018-12-07T22:25:04.914Z,24.47
2018-12-07T22:27:33.249Z,24.20
2018-12-07T22:30:02.125Z,26.97
2018-12-07T22:32:30.707Z,28.33
2018-12-07T22:34:59.205Z,26.87
2018-12-07T22:37:27.913Z,22.67
2018-12-07T22:39:56.430Z,26.40
2018-12-07T22:42:24.895Z,23.10
2018-12-07T22:44:53.234Z,22.10
2018-12-07T22:47:21.766Z,23.57
2018-12-07T22:49:50.802Z,22.37
2018-12-07T22:52:19.265Z,24.77
2018-12-07T22:54:47.541Z,24.00
2018-12-07T22:57:16.745Z,22.90
2018-12-07T22:59:45.022Z,18.77
2018-12-07T23:02:13.257Z,18.27
2018-12-07T23:04:41.474Z,19.40
2018-12-07T23:07:09.742Z,16.60
2018-12-07T23:09:37.912Z,15.57
2018-12-07T23:12:06.179Z,15.80
2018-12-07T23:14:34.566Z,18.47
2018-12-07T23:17:02.761Z,16.30
2018-12-07T23:19:31.038Z,15.97
2018-12-07T23:21:59.237Z,16.50
2018-12-07T23:24:27.654Z,14.80
2018-12-07T23:26:55.946Z,14.73
2018-12-07T23:29:24.145Z,15.03
2018-12-07T23:31:52.393Z,20.00
2018-12-07T23:34:20.683Z,18.40
2018-12-07T23:36:49.054Z,18.80
2018-12-07T23:39:17.326Z,20.57
2018-12-07T23:41:45.701Z,14.93
2018-12-07T23:44:13.925Z,16.27
2018-12-07T23:46:42.121Z,14.63
2018-12-07T23:49:10.383Z,13.90
2018-12-07T23:51:38.697Z,13.80
2018-12-07T23:54:07.086Z,14.20
2018-12-07T23:56:35.317Z,16.50
2018-12-07T23:59:03.562Z,13.90
